Time;durP1;ratioP1;P1;durP2;ratioP2;P2;SDS_P1;SDS_P2;PMS_P1;PMS_P2;Temp;Humidity;BMP_temperature;BMP_pressure;BME280_temperature;BME280_humidity;BME280_pressure;Samples;Min_cycle;Max_cycle;Signal;HPM_P1;HPM_P2
2022/11/26 00:00:24;;;;;;;13.35;9.52;;;;;;;9.17;57.16;101268.81;5027292;28;20041;-75
2022/11/26 00:02:50;;;;;;;19.15;9.32;;;;;;;9.22;56.50;101265.84;5029159;28;20030;-76
2022/11/26 00:05:16;;;;;;;13.70;8.70;;;;;;;9.11;56.59;101244.22;5029637;28;20036;-75
2022/11/26 00:07:46;;;;;;;14.52;9.25;;;;;;;9.04;56.77;101240.19;5043784;28;20045;-75
2022/11/26 00:10:19;;;;;;;14.77;8.85;;;;;;;9.25;56.33;101260.25;5029830;28;20037;-75
2022/11/26 00:12:45;;;;;;;15.48;9.93;;;;;;;9.24;56.64;101271.94;5037281;28;20088;-75
2022/11/26 00:15:21;;;;;;;16.67;10.73;;;;;;;9.29;57.23;101275.22;5030088;28;20041;-75
2022/11/26 00:17:48;;;;;;;20.63;10.43;;;;;;;9.36;56.52;101273.81;5030021;28;20045;-75
2022/11/26 00:20:15;;;;;;;17.00;9.65;;;;;;;9.41;56.28;101276.22;5033345;28;20172;-75
2022/11/26 00:22:48;;;;;;;16.00;9.05;;;;;;;9.50;56.36;101287.22;5033469;28;20036;-77
2022/11/26 00:25:27;;;;;;;25.92;10.23;;;;;;;9.35;56.45;101261.38;5033136;28;20451;-76
2022/11/26 00:27:54;;;;;;;15.88;9.90;;;;;;;9.51;55.77;101278.19;5032674;28;20036;-75
2022/11/26 00:30:25;;;;;;;16.33;9.82;;;;;;;9.50;55.82;101280.97;5032627;28;20045;-76
2022/11/26 00:32:52;;;;;;;17.00;9.68;;;;;;;9.25;55.75;101238.78;5033101;28;20116;-76
2022/11/26 00:35:18;;;;;;;13.77;9.02;;;;;;;9.26;55.32;101235.16;5032690;28;20564;-76
2022/11/26 00:37:46;;;;;;;13.52;8.93;;;;;;;9.38;55.52;101271.94;5032980;28;20056;-74
2022/11/26 00:40:30;;;;;;;16.02;9.18;;;;;;;9.40;55.32;101278.03;5033100;28;20117;-76
2022/11/26 00:42:56;;;;;;;23.48;9.57;;;;;;;9.16;54.95;101250.13;5033478;28;20022;-75
2022/11/26 00:45:28;;;;;;;13.60;8.68;;;;;;;9.45;55.10;101288.50;5034838;28;20056;-79
2022/11/26 00:47:54;;;;;;;;;;;;;;;9.50;54.79;101291.72;5036002;28;20511;-75
2022/11/26 00:50:26;;;;;;;14.90;9.07;;;;;;;9.46;54.81;101296.44;5033395;28;19957;-76
2022/11/26 00:52:56;;;;;;;13.32;9.10;;;;;;;9.40;54.94;101306.72;5032777;28;20083;-76
2022/11/26 00:55:45;;;;;;;15.75;10.70;;;;;;;9.53;54.83;101304.94;5033661;28;20425;-76
2022/11/26 00:58:27;;;;;;;12.98;8.80;;;;;;;9.56;54.64;101313.66;5034291;28;20405;-75
2022/11/26 01:00:54;;;;;;;14.77;9.35;;;;;;;9.59;54.33;101320.66;5035072;28;20060;-75
2022/11/26 01:03:20;;;;;;;17.30;11.02;;;;;;;9.60;54.42;101309.78;5033736;28;20477;-75
2022/11/26 01:05:51;;;;;;;14.10;9.40;;;;;;;9.69;54.50;101308.34;5033484;28;20029;-76
2022/11/26 01:08:29;;;;;;;16.02;9.32;;;;;;;9.54;54.44;101294.09;5032650;28;20056;-77
2022/11/26 01:10:56;;;;;;;17.67;9.98;;;;;;;9.74;54.37;101325.00;5032493;28;20059;-76
2022/11/26 01:13:22;;;;;;;17.80;10.82;;;;;;;9.77;54.98;101324.78;5032243;28;20023;-75
2022/11/26 01:15:47;;;;;;;17.83;9.95;;;;;;;9.75;54.87;101329.41;5032148;28;20384;-75
2022/11/26 01:18:19;;;;;;;13.30;9.30;;;;;;;9.84;54.24;101324.28;5032332;28;20706;-76
2022/11/26 01:20:45;;;;;;;15.02;8.73;;;;;;;9.87;53.76;101330.41;5032799;28;20401;-76
2022/11/26 01:23:12;;;;;;;14.75;10.05;;;;;;;9.55;54.15;101278.84;5032395;28;20091;-76
2022/11/26 01:25:39;;;;;;;18.85;9.43;;;;;;;9.81;54.13;101320.94;5032054;28;20096;-74
2022/11/26 01:28:08;;;;;;;13.15;9.32;;;;;;;9.81;54.17;101327.16;5032076;28;20022;-77
2022/11/26 01:30:34;;;;;;;15.18;10.07;;;;;;;9.80;54.43;101312.03;5030756;28;20033;-76
2022/11/26 01:33:00;;;;;;;16.30;9.30;;;;;;;9.88;54.40;101329.47;5032162;28;20033;-75
2022/11/26 01:35:26;;;;;;;14.88;9.90;;;;;;;9.88;54.56;101324.09;5031844;28;20112;-76
2022/11/26 01:37:52;;;;;;;13.95;9.80;;;;;;;9.88;54.21;101324.09;5042102;28;20147;-76
2022/11/26 01:41:02;;;;;;;22.23;10.40;;;;;;;9.89;54.39;101331.16;5033435;28;20158;-75
2022/11/26 01:43:35;;;;;;;18.25;9.68;;;;;;;9.91;54.56;101329.25;5009885;28;20547;-76
2022/11/26 01:46:01;;;;;;;17.25;10.05;;;;;;;9.85;54.41;101330.50;5009799;28;20037;-75
2022/11/26 01:48:30;;;;;;;15.38;9.35;;;;;;;9.82;54.53;101326.19;5011203;28;20104;-76
2022/11/26 01:50:58;;;;;;;16.27;10.23;;;;;;;9.85;54.68;101342.13;5011843;28;20132;-76
2022/11/26 01:53:26;;;;;;;15.88;10.30;;;;;;;9.80;55.26;101348.78;5012492;28;20500;-76
2022/11/26 01:55:57;;;;;;;17.25;10.48;;;;;;;9.61;55.33;101308.84;5012949;28;20033;-78
2022/11/26 01:58:37;;;;;;;19.52;10.27;;;;;;;9.81;55.24;101351.34;5010441;28;20069;-75
2022/11/26 02:01:02;;;;;;;18.13;10.25;;;;;;;9.80;55.70;101343.41;5009398;28;20084;-74
2022/11/26 02:03:33;;;;;;;15.73;10.45;;;;;;;9.89;54.97;101349.97;5009835;28;20484;-75
2022/11/26 02:06:06;;;;;;;15.57;9.70;;;;;;;9.76;54.36;101345.41;5009314;28;20083;-75
2022/11/26 02:08:33;;;;;;;;;;;;;;;9.75;54.61;101348.22;5010149;28;20126;-75
2022/11/26 02:10:58;;;;;;;16.17;10.68;;;;;;;9.76;54.08;101353.47;5008762;28;19910;-77
2022/11/26 02:13:24;;;;;;;18.70;10.32;;;;;;;9.50;53.86;101318.56;4992617;28;20580;-75
2022/11/26 02:16:33;;;;;;;16.85;10.70;;;;;;;9.52;53.77;101346.19;5008774;28;20033;-75
2022/11/26 02:19:27;;;;;;;15.93;10.00;;;;;;;9.53;54.16;101350.59;4893217;29;20461;-76
2022/11/26 02:22:07;;;;;;;16.58;11.20;;;;;;;9.57;54.15;101362.88;4893378;29;20040;-75
2022/11/26 02:24:42;;;;;;;19.45;10.70;;;;;;;9.50;54.65;101373.16;4893324;29;20489;-76
2022/11/26 02:27:10;;;;;;;20.48;11.35;;;;;;;9.29;54.61;101328.91;4893449;29;20043;-76
2022/11/26 02:30:01;;;;;;;19.20;11.65;;;;;;;9.45;54.99;101369.88;4893269;29;20040;-76
2022/11/26 02:32:45;;;;;;;18.02;10.68;;;;;;;9.39;55.08;101364.91;4893788;29;20119;-76
2022/11/26 02:35:26;;;;;;;18.92;11.98;;;;;;;9.48;55.28;101367.00;4893239;29;20035;-75
2022/11/26 02:38:00;;;;;;;21.15;12.48;;;;;;;9.35;55.15;101379.50;4893563;29;20044;-76
2022/11/26 02:40:25;;;;;;;30.08;11.93;;;;;;;9.25;54.83;101378.38;4893518;29;20032;-76
2022/11/26 02:42:51;;;;;;;17.80;10.82;;;;;;;9.32;55.14;101382.38;4893068;29;20108;-77
2022/11/26 02:45:21;;;;;;;16.48;10.93;;;;;;;9.37;55.12;101393.69;4893158;29;20115;-76
2022/11/26 02:47:51;;;;;;;23.00;11.02;;;;;;;9.38;54.66;101392.72;4893282;29;20473;-77
2022/11/26 02:50:46;;;;;;;20.88;13.30;;;;;;;9.29;54.81;101398.69;4893059;29;20091;-76
2022/11/26 02:53:14;;;;;;;22.73;12.82;;;;;;;9.10;54.32;101384.72;4931381;29;20044;-75
2022/11/26 02:55:44;;;;;;;17.15;12.15;;;;;;;9.14;54.71;101396.97;4953037;28;20527;-76
2022/11/26 02:58:10;;;;;;;14.85;10.75;;;;;;;9.16;54.08;101384.31;5048206;28;20102;-77
2022/11/26 03:00:40;;;;;;;19.10;11.82;;;;;;;9.15;54.47;101385.28;5054091;28;20037;-76
2022/11/26 03:03:08;;;;;;;17.58;10.52;;;;;;;9.15;54.52;101398.69;5052793;28;20555;-77
2022/11/26 03:05:37;;;;;;;25.77;12.57;;;;;;;9.18;54.78;101393.13;5010234;28;20059;-75
2022/11/26 03:08:06;;;;;;;17.23;10.43;;;;;;;9.12;54.95;101389.00;5009042;28;20038;-76
2022/11/26 03:10:31;;;;;;;23.30;10.73;;;;;;;9.17;54.64;101396.78;5008887;28;20049;-76
2022/11/26 03:12:57;;;;;;;20.10;11.90;;;;;;;9.11;54.80;101399.88;5008486;28;20026;-75
2022/11/26 03:15:23;;;;;;;19.15;11.57;;;;;;;9.00;54.60;101399.66;5008180;28;20045;-76
2022/11/26 03:17:48;;;;;;;19.30;11.13;;;;;;;9.06;54.47;101415.38;5008447;28;20127;-77
2022/11/26 03:20:15;;;;;;;17.17;10.75;;;;;;;8.94;54.67;101414.31;5007953;28;20065;-76
2022/11/26 03:22:41;;;;;;;15.95;10.60;;;;;;;8.91;55.04;101427.91;5007716;28;20072;-74
2022/11/26 03:25:07;;;;;;;17.08;11.02;;;;;;;8.85;55.44;101417.56;5007887;28;20049;-75
2022/11/26 03:27:32;;;;;;;20.00;11.60;;;;;;;8.95;55.20;101428.59;5007753;28;20087;-76
2022/11/26 03:29:58;;;;;;;26.13;12.45;;;;;;;9.06;55.32;101431.47;5008224;28;20045;-75
2022/11/26 03:32:23;;;;;;;19.85;11.77;;;;;;;8.96;55.29;101436.53;5008107;28;20030;-75
2022/11/26 03:34:49;;;;;;;18.23;11.00;;;;;;;8.98;55.03;101431.97;5007994;28;20041;-75
2022/11/26 03:37:14;;;;;;;17.63;11.68;;;;;;;8.98;54.81;101428.41;5025553;28;20038;-77
2022/11/26 03:39:40;;;;;;;19.75;12.00;;;;;;;8.97;55.29;101440.09;5029913;28;20030;-76
2022/11/26 03:42:05;;;;;;;16.90;10.45;;;;;;;8.99;54.95;101435.50;5028750;28;20412;-77
2022/11/26 03:44:31;;;;;;;17.75;11.15;;;;;;;9.03;54.82;101442.38;5048496;28;20025;-75
2022/11/26 03:46:56;;;;;;;20.00;10.85;;;;;;;8.97;54.86;101427.53;5048515;28;20138;-75
2022/11/26 03:49:22;;;;;;;17.58;10.57;;;;;;;8.99;54.74;101428.28;5048531;28;20110;-75
2022/11/26 03:51:47;;;;;;;19.75;11.35;;;;;;;9.01;54.62;101434.44;5048004;28;20822;-76
2022/11/26 03:54:12;;;;;;;19.00;10.50;;;;;;;9.01;55.16;101433.59;5050839;28;20025;-76
2022/11/26 03:56:38;;;;;;;15.45;9.65;;;;;;;8.95;55.25;101434.84;5050792;28;20044;-75
2022/11/26 03:59:03;;;;;;;14.10;9.68;;;;;;;9.03;54.99;101426.28;5052304;28;20033;-76
2022/11/26 04:01:29;;;;;;;16.65;10.75;;;;;;;9.10;54.50;101433.88;5052348;28;20399;-75
2022/11/26 04:03:54;;;;;;;18.40;11.27;;;;;;;9.13;54.71;101439.06;5052040;28;20480;-77
2022/11/26 04:06:20;;;;;;;16.63;9.60;;;;;;;9.03;54.28;101426.28;5053433;28;20029;-75
2022/11/26 04:08:45;;;;;;;22.45;11.40;;;;;;;9.01;54.80;101428.22;5048456;28;20025;-76
2022/11/26 04:11:11;;;;;;;20.20;11.63;;;;;;;9.05;54.96;101430.59;5041478;28;20030;-77
2022/11/26 04:13:36;;;;;;;17.15;10.85;;;;;;;9.02;55.00;101408.50;5042914;28;20064;-78
2022/11/26 04:16:01;;;;;;;19.92;11.52;;;;;;;9.11;54.32;101424.00;5052560;28;20540;-75
2022/11/26 04:18:27;;;;;;;20.70;11.65;;;;;;;9.06;54.56;101420.72;5052218;28;20033;-75
2022/11/26 04:20:52;;;;;;;22.20;10.55;;;;;;;9.03;54.47;101434.34;5052342;28;20446;-78
2022/11/26 04:23:18;;;;;;;18.58;10.65;;;;;;;9.03;54.95;101442.38;5052134;28;20025;-77
2022/11/26 04:25:44;;;;;;;20.58;11.93;;;;;;;9.10;54.97;101443.75;5051860;28;20033;-76
2022/11/26 04:28:09;;;;;;;19.63;11.10;;;;;;;9.10;54.93;101443.75;5053432;28;20017;-75
2022/11/26 04:30:34;;;;;;;17.67;11.30;;;;;;;9.15;54.78;101441.63;5058611;28;20067;-77
2022/11/26 04:33:00;;;;;;;18.73;11.23;;;;;;;9.16;54.41;101446.03;5051898;28;20511;-78
2022/11/26 04:35:25;;;;;;;15.82;10.82;;;;;;;9.09;54.73;101433.97;5052362;28;20035;-77
2022/11/26 04:37:51;;;;;;;17.52;10.07;;;;;;;9.13;54.23;101438.19;5052117;28;20036;-77
2022/11/26 04:40:16;;;;;;;19.02;11.30;;;;;;;9.15;54.44;101452.34;5051517;28;20036;-78
2022/11/26 04:42:42;;;;;;;17.33;10.60;;;;;;;9.12;54.44;101457.91;5051585;28;20582;-78
2022/11/26 04:45:09;;;;;;;17.63;10.95;;;;;;;9.11;54.20;101450.84;5051773;28;20578;-75
2022/11/26 04:47:34;;;;;;;18.35;10.98;;;;;;;9.02;54.06;101462.16;5051978;28;20020;-78
2022/11/26 04:50:00;;;;;;;21.20;12.07;;;;;;;9.00;53.97;101458.69;5050492;28;20132;-75
2022/11/26 04:52:25;;;;;;;21.98;12.10;;;;;;;8.81;54.82;101476.88;5051290;28;20487;-76
2022/11/26 04:54:50;;;;;;;24.70;13.02;;;;;;;8.92;54.74;101477.94;5051281;28;20476;-75
2022/11/26 04:57:16;;;;;;;21.85;12.73;;;;;;;8.95;54.41;101490.31;5050939;28;20021;-76
2022/11/26 04:59:41;;;;;;;17.75;10.88;;;;;;;9.00;54.53;101483.69;5051417;28;20029;-74
2022/11/26 05:02:07;;;;;;;17.90;10.45;;;;;;;9.10;54.59;101498.28;5051542;28;20028;-74
2022/11/26 05:04:32;;;;;;;20.25;11.23;;;;;;;9.09;54.43;101495.69;5049913;28;20032;-75
2022/11/26 05:06:57;;;;;;;19.25;11.45;;;;;;;9.06;54.41;101480.63;5051409;28;20447;-74
2022/11/26 05:09:23;;;;;;;19.05;10.00;;;;;;;9.05;54.56;101489.63;5051060;28;20027;-75
2022/11/26 05:11:48;;;;;;;17.42;11.20;;;;;;;9.01;53.83;101471.16;5053019;28;20415;-75
2022/11/26 05:14:14;;;;;;;20.35;10.73;;;;;;;9.23;54.15;101509.13;5060277;28;20033;-77
2022/11/26 05:16:39;;;;;;;21.48;12.50;;;;;;;9.13;54.12;101513.31;5054271;28;20029;-75
2022/11/26 05:19:05;;;;;;;17.88;11.68;;;;;;;9.20;54.23;101509.31;5052404;28;20081;-76
2022/11/26 05:21:30;;;;;;;17.58;11.27;;;;;;;8.95;54.25;101461.66;5050791;28;20029;-76
2022/11/26 05:23:56;;;;;;;20.35;11.95;;;;;;;9.29;53.56;101519.50;5052026;28;20032;-76
2022/11/26 05:26:21;;;;;;;26.45;13.18;;;;;;;9.02;54.05;101478.25;5052230;28;20454;-75
2022/11/26 05:28:47;;;;;;;21.75;12.95;;;;;;;9.32;54.10;101513.94;5052605;28;20033;-76
2022/11/26 05:31:12;;;;;;;23.27;11.90;;;;;;;9.26;54.02;101517.00;5052707;28;20024;-76
2022/11/26 05:33:38;;;;;;;37.80;16.90;;;;;;;9.20;54.15;101515.53;5052225;28;20503;-77
2022/11/26 05:36:03;;;;;;;28.30;15.82;;;;;;;9.24;54.00;101514.38;5052889;28;20479;-75
2022/11/26 05:38:29;;;;;;;22.90;13.20;;;;;;;9.05;54.22;101472.69;5049742;28;20064;-76
2022/11/26 05:40:54;;;;;;;25.52;14.13;;;;;;;9.21;54.39;101517.25;5051806;28;20032;-76
2022/11/26 05:43:20;;;;;;;31.48;13.15;;;;;;;9.10;54.28;101500.09;5051821;28;20021;-76
2022/11/26 05:45:45;;;;;;;29.35;15.15;;;;;;;9.15;54.30;101522.13;5051483;28;20020;-75
2022/11/26 05:48:11;;;;;;;27.50;13.02;;;;;;;9.09;54.26;101528.75;5051578;28;20100;-75
2022/11/26 05:50:36;;;;;;;23.55;12.60;;;;;;;9.04;54.77;101527.31;5051767;28;20052;-76
2022/11/26 05:53:02;;;;;;;31.17;13.98;;;;;;;8.93;54.75;101527.94;5051368;28;20048;-76
2022/11/26 05:55:28;;;;;;;20.00;12.60;;;;;;;8.76;54.80;101514.69;5057638;28;20472;-76
2022/11/26 05:57:53;;;;;;;22.33;14.00;;;;;;;8.86;54.76;101545.38;5053017;28;20756;-77
2022/11/26 06:00:19;;;;;;;26.45;12.70;;;;;;;8.72;54.89;101550.69;5051698;28;20052;-76
2022/11/26 06:02:44;;;;;;;26.77;14.48;;;;;;;8.73;55.03;101561.34;5051421;28;20408;-76
2022/11/26 06:05:10;;;;;;;26.40;14.73;;;;;;;8.66;55.37;101530.47;5049783;28;20032;-76
2022/11/26 06:07:36;;;;;;;24.75;14.73;;;;;;;8.71;55.41;101535.56;5051092;28;20040;-75
2022/11/26 06:10:02;;;;;;;28.38;14.55;;;;;;;8.71;55.78;101557.84;5050922;28;20033;-75
2022/11/26 06:12:27;;;;;;;41.08;15.57;;;;;;;8.84;55.64;101565.22;5051080;28;20514;-75
2022/11/26 06:14:53;;;;;;;22.38;13.65;;;;;;;8.77;55.74;101562.84;5051110;28;20112;-75
2022/11/26 06:17:18;;;;;;;25.35;14.65;;;;;;;8.83;55.02;101569.72;5051048;28;20400;-75
2022/11/26 06:19:43;;;;;;;23.77;13.95;;;;;;;8.84;55.47;101573.25;5056547;28;20488;-77
2022/11/26 06:22:09;;;;;;;27.33;14.18;;;;;;;8.80;55.20;101563.66;5056252;28;20036;-75
2022/11/26 06:24:35;;;;;;;33.17;13.45;;;;;;;8.45;54.80;101533.53;5052162;28;20025;-77
2022/11/26 06:27:00;;;;;;;22.75;13.25;;;;;;;8.68;55.14;101560.72;5050748;28;20075;-76
2022/11/26 06:29:25;;;;;;;50.17;28.48;;;;;;;8.73;55.03;101566.69;5050948;28;20085;-76
2022/11/26 06:31:51;;;;;;;30.63;16.98;;;;;;;8.87;54.85;101565.03;5050506;28;20067;-76
2022/11/26 06:34:16;;;;;;;21.85;13.63;;;;;;;8.88;54.42;101566.72;5050597;28;20056;-76
2022/11/26 06:36:42;;;;;;;17.50;11.02;;;;;;;8.75;54.83;101570.16;5056341;28;20025;-77
2022/11/26 06:39:10;;;;;;;17.35;10.63;;;;;;;8.65;54.39;101573.47;5060104;28;20036;-75
2022/11/26 06:41:36;;;;;;;26.33;11.48;;;;;;;8.60;54.85;101579.09;5060471;28;20459;-77
2022/11/26 06:44:03;;;;;;;21.48;11.85;;;;;;;8.77;54.46;101581.63;5051558;28;20074;-77
2022/11/26 06:46:29;;;;;;;17.05;10.07;;;;;;;8.87;54.16;101573.06;5050220;28;20021;-75
2022/11/26 06:48:54;;;;;;;19.50;10.30;;;;;;;8.95;53.80;101582.38;5050247;28;20133;-76
2022/11/26 06:51:20;;;;;;;15.77;9.60;;;;;;;8.97;53.98;101582.28;5048024;28;20203;-75
2022/11/26 06:53:47;;;;;;;38.78;10.50;;;;;;;9.07;54.02;101586.16;5049866;28;20111;-77
2022/11/26 06:56:14;;;;;;;16.85;10.07;;;;;;;9.00;53.51;101587.47;5050024;28;20025;-76
2022/11/26 06:58:40;;;;;;;20.58;10.43;;;;;;;9.13;53.47;101592.03;5050102;28;20063;-75
2022/11/26 07:01:11;;;;;;;18.80;10.65;;;;;;;9.17;53.46;101590.03;5050428;28;20029;-75
2022/11/26 07:03:37;;;;;;;21.23;11.32;;;;;;;9.22;53.29;101585.22;5049995;28;20035;-76
2022/11/26 07:06:02;;;;;;;19.35;11.23;;;;;;;9.07;53.17;101594.22;5049952;28;20021;-77
2022/11/26 07:08:28;;;;;;;22.23;13.57;;;;;;;9.13;53.30;101602.75;5049672;28;20040;-74
2022/11/26 07:10:53;;;;;;;15.70;10.48;;;;;;;9.08;53.20;101599.47;5049943;28;20083;-76
2022/11/26 07:13:19;;;;;;;16.40;10.57;;;;;;;9.17;53.02;101598.91;5049795;28;20071;-75
2022/11/26 07:15:44;;;;;;;18.73;10.05;;;;;;;8.82;53.04;101567.09;5049459;28;20036;-75
2022/11/26 07:18:10;;;;;;;18.05;11.48;;;;;;;9.04;54.01;101615.84;5049637;28;20555;-76
2022/11/26 07:20:36;;;;;;;16.30;10.05;;;;;;;8.93;53.75;101602.22;5054270;28;20027;-77
2022/11/26 07:23:03;;;;;;;18.63;10.82;;;;;;;8.94;53.72;101610.16;5052954;28;20036;-75
2022/11/26 07:25:29;;;;;;;21.17;11.43;;;;;;;8.95;53.77;101611.03;5050239;28;20016;-77
2022/11/26 07:27:55;;;;;;;18.77;11.23;;;;;;;9.01;53.93;101610.66;5051658;28;20029;-76
2022/11/26 07:30:21;;;;;;;19.30;11.25;;;;;;;9.02;54.01;101617.78;5055453;28;20032;-76
2022/11/26 07:32:46;;;;;;;19.55;9.85;;;;;;;8.97;53.88;101582.28;5054007;28;20071;-75
2022/11/26 07:35:11;;;;;;;24.10;12.13;;;;;;;9.13;54.46;101601.88;5053894;28;20110;-76
2022/11/26 07:37:37;;;;;;;25.40;13.00;;;;;;;9.07;53.73;101580.78;5051318;28;20077;-78
2022/11/26 07:40:04;;;;;;;15.82;10.05;;;;;;;9.29;53.97;101597.34;5053820;28;20021;-75
2022/11/26 07:42:31;;;;;;;18.20;11.30;;;;;;;9.40;53.34;101605.59;5053812;28;20407;-76
2022/11/26 07:44:56;;;;;;;21.50;10.70;;;;;;;9.50;53.63;101614.81;5053775;28;20066;-75
2022/11/26 07:47:21;;;;;;;18.05;10.45;;;;;;;9.43;53.47;101605.41;5053778;28;20060;-76
2022/11/26 07:49:47;;;;;;;25.23;10.98;;;;;;;9.58;54.15;101623.25;5053774;28;20053;-76
2022/11/26 07:52:12;;;;;;;22.98;12.85;;;;;;;9.46;54.05;101582.88;5053213;28;20025;-75
2022/11/26 07:54:38;;;;;;;22.90;10.98;;;;;;;9.79;53.71;101616.56;5053714;28;20029;-76
2022/11/26 07:57:03;;;;;;;21.02;11.10;;;;;;;9.97;52.65;101621.75;5053689;28;20025;-75
2022/11/26 07:59:29;;;;;;;19.23;10.93;;;;;;;9.98;52.94;101618.09;5053301;28;20025;-74
2022/11/26 08:01:54;;;;;;;20.00;11.68;;;;;;;9.89;53.21;101613.28;5053315;28;20032;-75
2022/11/26 08:04:19;;;;;;;35.78;14.05;;;;;;;10.09;53.65;101618.28;5053088;28;20028;-75
2022/11/26 08:06:45;;;;;;;20.77;12.00;;;;;;;10.24;52.88;101603.91;5053176;28;20448;-78
2022/11/26 08:09:10;;;;;;;19.52;11.90;;;;;;;10.22;52.69;101613.88;5053196;28;20392;-76
2022/11/26 08:11:36;;;;;;;21.20;12.82;;;;;;;10.32;52.83;101593.50;5053182;28;20040;-75
2022/11/26 08:14:08;;;;;;;21.40;12.75;;;;;;;10.32;52.59;101572.00;5053368;28;20028;-76
2022/11/26 08:16:34;;;;;;;23.40;12.48;;;;;;;10.40;52.28;101566.97;5053134;28;20048;-77
2022/11/26 08:19:03;;;;;;;26.20;12.77;;;;;;;10.53;52.39;101586.72;5053441;28;20025;-76
2022/11/26 08:21:28;;;;;;;21.55;12.00;;;;;;;10.67;52.34;101605.50;5052558;28;20549;-76
2022/11/26 08:23:54;;;;;;;26.60;14.52;;;;;;;10.76;52.32;101614.81;5053438;28;20029;-75
2022/11/26 08:26:20;;;;;;;23.77;11.68;;;;;;;10.89;52.28;101611.19;5053543;28;20083;-76
2022/11/26 08:28:46;;;;;;;23.75;13.13;;;;;;;10.89;52.35;101613.88;5054277;28;20099;-75
2022/11/26 08:31:14;;;;;;;21.10;12.82;;;;;;;11.03;51.35;101618.34;5054296;28;20493;-77
2022/11/26 08:33:40;;;;;;;21.85;13.88;;;;;;;11.01;51.43;101608.66;5055522;28;20033;-76
2022/11/26 08:36:06;;;;;;;37.90;14.27;;;;;;;11.01;52.03;101619.41;5056927;28;20089;-77
2022/11/26 08:38:31;;;;;;;29.98;13.50;;;;;;;11.00;52.32;101625.75;5054735;28;20021;-76
2022/11/26 08:41:05;;;;;;;33.70;14.70;;;;;;;11.03;52.18;101614.78;5052621;28;20086;-77
2022/11/26 08:43:31;;;;;;;23.50;14.00;;;;;;;11.13;51.63;101624.81;5056599;28;20027;-78
2022/11/26 08:45:58;;;;;;;25.08;13.95;;;;;;;10.93;51.40;101585.78;5055816;28;20024;-77
2022/11/26 08:48:25;;;;;;;35.88;15.05;;;;;;;11.20;52.12;101619.88;5054990;28;20104;-76
2022/11/26 08:50:59;;;;;;;27.38;13.80;;;;;;;11.42;51.75;101625.50;5053064;28;20117;-75
2022/11/26 08:53:27;;;;;;;22.38;13.48;;;;;;;11.59;51.21;101627.88;5050845;28;20115;-76
2022/11/26 08:55:52;;;;;;;24.48;12.63;;;;;;;11.65;50.62;101627.47;5052551;28;20028;-75
2022/11/26 08:58:18;;;;;;;25.70;13.35;;;;;;;11.64;50.25;101624.88;5052069;28;20400;-76
2022/11/26 09:00:43;;;;;;;22.63;11.85;;;;;;;11.56;49.90;101628.09;5052300;28;20025;-76
2022/11/26 09:03:09;;;;;;;24.65;15.38;;;;;;;11.42;49.42;101609.34;5052683;28;20476;-77
2022/11/26 09:05:34;;;;;;;27.80;13.70;;;;;;;11.50;49.10;101625.84;5051185;28;20032;-75
2022/11/26 09:07:59;;;;;;;24.83;12.77;;;;;;;11.42;49.95;101617.44;5051941;28;20031;-75
2022/11/26 09:10:25;;;;;;;28.33;14.35;;;;;;;11.39;49.79;101620.34;5051876;28;20100;-76
2022/11/26 09:12:50;;;;;;;25.25;12.38;;;;;;;11.53;50.35;101628.31;5052087;28;20095;-74
2022/11/26 09:15:16;;;;;;;22.17;12.43;;;;;;;11.35;50.32;101581.09;5051814;28;20025;-77
2022/11/26 09:17:41;;;;;;;25.20;13.95;;;;;;;11.27;49.39;101575.41;5051743;28;20032;-75
2022/11/26 09:20:07;;;;;;;45.30;22.10;;;;;;;11.66;49.58;101613.03;5049305;28;20033;-76
2022/11/26 09:22:34;;;;;;;65.75;33.10;;;;;;;11.67;49.03;101614.75;5051632;28;20025;-75
2022/11/26 09:24:59;;;;;;;48.25;23.05;;;;;;;11.56;49.27;101578.78;5051659;28;20031;-75
2022/11/26 09:27:25;;;;;;;50.88;26.05;;;;;;;11.76;49.64;101610.59;5051753;28;20115;-75
2022/11/26 09:29:50;;;;;;;25.23;15.07;;;;;;;11.62;48.76;101565.69;5050098;28;20439;-75
2022/11/26 09:32:16;;;;;;;29.83;15.90;;;;;;;11.89;48.67;101606.06;5052588;28;20078;-77
2022/11/26 09:34:41;;;;;;;38.85;19.90;;;;;;;12.03;48.30;101605.91;5052601;28;20017;-75
2022/11/26 09:37:06;;;;;;;34.67;18.27;;;;;;;12.14;47.74;101607.84;5051611;28;20029;-76
2022/11/26 09:39:32;;;;;;;39.88;15.18;;;;;;;12.04;47.50;101582.53;5051130;28;20056;-76
2022/11/26 09:42:07;;;;;;;24.45;12.20;;;;;;;12.08;48.08;101600.22;5054595;28;20037;-76
2022/11/26 09:44:52;;;;;;;19.60;12.10;;;;;;;12.25;47.69;101591.75;5054356;28;20539;-77
2022/11/26 09:47:21;;;;;;;30.35;11.98;;;;;;;12.23;47.56;101591.00;5052459;28;20045;-75
2022/11/26 09:49:59;;;;;;;22.25;11.77;;;;;;;12.33;47.09;101589.34;5051658;28;20048;-75
2022/11/26 09:52:29;;;;;;;20.48;13.15;;;;;;;12.31;47.08;101567.03;5050727;28;20033;-75
2022/11/26 09:55:10;;;;;;;21.23;12.10;;;;;;;12.43;47.15;101560.72;5049260;28;20183;-76
2022/11/26 09:57:42;;;;;;;24.90;12.75;;;;;;;12.67;45.80;101585.88;5051455;28;20021;-75
2022/11/26 10:00:29;;;;;;;32.08;14.18;;;;;;;12.69;46.13;101586.59;5051356;28;20029;-76
2022/11/26 10:02:56;;;;;;;38.72;13.95;;;;;;;12.57;46.92;101574.91;5050951;28;20029;-76
2022/11/26 10:05:39;;;;;;;31.00;13.82;;;;;;;12.41;47.05;101541.09;5031813;28;20445;-76
2022/11/26 10:08:31;;;;;;;22.67;12.68;;;;;;;12.77;46.10;101580.66;5049769;28;20073;-77
2022/11/26 10:11:05;;;;;;;26.80;13.27;;;;;;;12.70;46.21;101579.38;5054083;28;20095;-75
2022/11/26 10:13:37;;;;;;;24.40;12.50;;;;;;;12.47;46.95;101543.34;5057295;28;20024;-76
2022/11/26 10:16:09;;;;;;;;;;;;;;;12.66;46.68;101573.34;5051585;28;20064;-77
2022/11/26 10:18:38;;;;;;;25.50;12.18;;;;;;;12.75;46.58;101572.66;5049999;28;20323;-76
2022/11/26 10:21:26;;;;;;;19.75;11.05;;;;;;;12.89;45.53;101579.72;5050706;28;20025;-75
2022/11/26 10:24:03;;;;;;;19.13;10.55;;;;;;;12.84;45.21;101565.72;5050883;28;20028;-76
2022/11/26 10:26:33;;;;;;;34.80;13.10;;;;;;;12.89;44.75;101564.38;5050599;28;20108;-74
2022/11/26 10:29:12;;;;;;;21.50;10.00;;;;;;;12.99;44.59;101570.81;5050858;28;20029;-75
2022/11/26 10:31:40;;;;;;;23.98;9.93;;;;;;;13.06;44.43;101580.16;5050582;28;20044;-75
2022/11/26 10:34:15;;;;;;;24.35;11.82;;;;;;;13.13;43.91;101571.59;5050364;28;20063;-76
2022/11/26 10:36:43;;;;;;;20.42;9.50;;;;;;;13.15;43.43;101575.91;5048240;28;20507;-75
2022/11/26 10:39:15;;;;;;;21.27;9.43;;;;;;;13.14;43.67;101576.03;5050360;28;20086;-76
2022/11/26 10:41:41;;;;;;;18.13;10.57;;;;;;;13.22;43.78;101576.28;5049492;28;20033;-76
2022/11/26 10:44:33;;;;;;;19.45;11.30;;;;;;;13.17;43.63;101583.91;5051046;28;20128;-75
2022/11/26 10:47:17;;;;;;;15.13;8.35;;;;;;;13.17;43.86;101583.91;5051029;28;20029;-75
2022/11/26 10:49:42;;;;;;;18.25;9.35;;;;;;;13.18;43.47;101575.66;5051531;28;20143;-76
2022/11/26 10:52:08;;;;;;;15.32;8.80;;;;;;;13.15;43.48;101581.31;5053189;28;20104;-76
2022/11/26 10:54:36;;;;;;;14.30;9.30;;;;;;;13.04;43.30;101563.22;5052995;28;20037;-76
2022/11/26 10:57:16;;;;;;;13.95;9.27;;;;;;;13.27;43.68;101574.94;5050058;28;20567;-75
2022/11/26 10:59:44;;;;;;;23.83;9.38;;;;;;;13.30;42.90;101565.78;5050728;28;20051;-75
2022/11/26 11:02:19;;;;;;;17.85;9.40;;;;;;;13.47;43.18;101592.34;5050184;28;20094;-76
2022/11/26 11:04:47;;;;;;;14.98;8.45;;;;;;;13.54;42.36;101590.88;5049883;28;20037;-76
2022/11/26 11:07:28;;;;;;;11.93;8.10;;;;;;;13.53;42.82;101591.84;5050161;28;20048;-76
2022/11/26 11:10:11;;;;;;;24.02;11.85;;;;;;;13.67;42.64;101594.31;5049451;28;20036;-76
2022/11/26 11:12:41;;;;;;;59.60;26.30;;;;;;;13.68;42.90;101596.06;5049810;28;20560;-76
2022/11/26 11:15:21;;;;;;;33.80;13.23;;;;;;;13.81;43.07;101602.22;5049873;28;20108;-76
2022/11/26 11:18:11;;;;;;;25.13;14.02;;;;;;;14.00;42.89;101596.19;5049867;28;20081;-74
2022/11/26 11:20:40;;;;;;;20.75;10.02;;;;;;;14.05;42.02;101602.09;5049906;28;20021;-76
2022/11/26 11:23:08;;;;;;;15.05;8.07;;;;;;;14.00;41.43;101607.03;5050303;28;20036;-75